Time;durP1;ratioP1;P1;durP2;ratioP2;P2;SDS_P1;SDS_P2;PMS_P1;PMS_P2;Temp;Humidity;BMP_temperature;BMP_pressure;BME280_temperature;BME280_humidity;BME280_pressure;Samples;Min_cycle;Max_cycle;Signal;HPM_P1;HPM_P2
2024/04/05 00:00:41;;;;;;;1.10;1.10;;;;;;;11.63;51.37;96645.91;5099451;28;20287;-81
2024/04/05 00:03:07;;;;;;;1.47;1.33;;;;;;;11.74;51.09;96650.00;5098096;28;20697;-81
2024/04/05 00:05:35;;;;;;;1.97;1.43;;;;;;;11.97;49.28;96650.19;5094634;28;20204;-81
2024/04/05 00:08:01;;;;;;;3.47;1.30;;;;;;;11.91;49.88;96652.13;5094102;28;20602;-80
2024/04/05 00:10:28;;;;;;;2.17;1.20;;;;;;;12.15;48.81;96651.97;5093838;28;20196;-81
2024/04/05 00:12:54;;;;;;;1.20;1.10;;;;;;;12.34;48.15;96646.56;5098260;28;20546;-81
2024/04/05 00:15:20;;;;;;;1.70;1.10;;;;;;;12.43;47.92;96649.38;5115310;28;20195;-80
2024/04/05 00:17:47;;;;;;;2.00;1.20;;;;;;;12.37;48.23;96648.66;5111756;28;20199;-81
2024/04/05 00:20:14;;;;;;;2.27;1.30;;;;;;;12.24;49.32;96647.56;5094374;28;20207;-80
2024/04/05 00:22:41;;;;;;;2.03;1.27;;;;;;;12.38;48.80;96652.09;5109716;28;20197;-80
2024/04/05 00:25:08;;;;;;;1.40;1.13;;;;;;;12.53;47.52;96646.47;5111282;28;20249;-81
2024/04/05 00:27:34;;;;;;;1.50;1.33;;;;;;;12.60;47.43;96640.75;5093780;28;20659;-83
2024/04/05 00:30:02;;;;;;;3.87;1.27;;;;;;;12.71;47.07;96642.13;5102007;28;20206;-84
2024/04/05 00:32:28;;;;;;;1.80;1.20;;;;;;;12.73;47.05;96638.06;5102899;28;20204;-85
2024/04/05 00:34:54;;;;;;;1.10;1.00;;;;;;;12.59;46.54;96612.47;5100148;28;20661;-86
2024/04/05 00:37:20;;;;;;;2.03;1.20;;;;;;;12.61;46.96;96610.28;5114345;28;20272;-86
2024/04/05 00:39:49;;;;;;;0.87;0.87;;;;;;;12.84;47.17;96641.31;5110804;28;20196;-86
2024/04/05 00:42:15;;;;;;;1.73;1.10;;;;;;;12.76;47.18;96650.03;5100552;28;20199;-87
2024/04/05 00:44:41;;;;;;;1.53;1.40;;;;;;;12.78;47.84;96639.84;5114407;28;20584;-88
2024/04/05 00:47:08;;;;;;;2.00;1.20;;;;;;;12.41;48.13;96638.19;5105628;28;20199;-87
2024/04/05 00:49:35;;;;;;;1.80;1.20;;;;;;;12.24;48.58;96604.88;5114804;28;20710;-86
2024/04/05 00:52:03;;;;;;;1.30;1.20;;;;;;;12.31;48.92;96620.47;5113554;28;20199;-86
2024/04/05 00:54:30;;;;;;;1.40;1.30;;;;;;;12.49;48.63;96632.16;5099196;28;20208;-86
2024/04/05 00:56:58;;;;;;;1.50;1.20;;;;;;;12.46;48.15;96620.16;5096340;28;20195;-87
2024/04/05 00:59:28;;;;;;;1.47;1.10;;;;;;;12.47;48.02;96604.97;5114359;28;20199;-86
2024/04/05 01:01:53;;;;;;;1.40;1.27;;;;;;;12.53;47.83;96643.81;5106728;28;20230;-85
2024/04/05 01:04:20;;;;;;;1.17;1.10;;;;;;;12.42;47.76;96597.03;5093326;28;20695;-87
2024/04/05 01:06:47;;;;;;;1.37;1.27;;;;;;;12.59;47.44;96623.16;5093658;28;20192;-83
2024/04/05 01:09:14;;;;;;;1.87;1.20;;;;;;;12.82;46.98;96634.72;5093678;28;20207;-85
2024/04/05 01:11:40;;;;;;;2.57;1.20;;;;;;;12.66;46.87;96618.19;5095668;28;20196;-86
2024/04/05 01:14:08;;;;;;;4.00;1.20;;;;;;;12.63;47.23;96629.50;5099057;28;20223;-85
2024/04/05 01:16:34;;;;;;;1.40;1.30;;;;;;;12.45;47.88;96642.63;5101814;28;20206;-87
2024/04/05 01:19:01;;;;;;;1.63;1.20;;;;;;;12.06;49.60;96639.63;5113806;28;20195;-84
2024/04/05 01:21:27;;;;;;;1.40;1.30;;;;;;;11.99;50.00;96646.13;5113870;28;20661;-86
2024/04/05 01:23:56;;;;;;;3.37;1.83;;;;;;;11.91;50.30;96651.34;5112530;28;20227;-83
2024/04/05 01:26:22;;;;;;;2.87;2.10;;;;;;;11.76;51.11;96657.69;5104827;28;20202;-85
2024/04/05 01:28:48;;;;;;;1.50;1.40;;;;;;;11.39;51.06;96627.34;5113425;28;20654;-86
2024/04/05 01:31:14;;;;;;;1.43;1.27;;;;;;;11.50;51.54;96662.63;5095956;28;20242;-91
2024/04/05 01:33:41;;;;;;;1.67;1.40;;;;;;;11.64;51.53;96657.34;5100182;28;20205;-90
2024/04/05 01:36:07;;;;;;;2.13;1.43;;;;;;;11.35;51.79;96614.91;5093862;28;20204;-90
2024/04/05 01:38:34;;;;;;;1.73;1.50;;;;;;;11.62;50.89;96662.19;5093666;28;20208;-90
2024/04/05 01:41:01;;;;;;;1.50;1.40;;;;;;;11.39;51.50;96648.66;5094012;28;20207;-91
2024/04/05 01:43:28;;;;;;;1.60;1.10;;;;;;;11.32;51.77;96653.56;5104458;28;20234;-91
2024/04/05 01:45:54;;;;;;;1.40;1.30;;;;;;;11.25;52.32;96664.56;5094127;28;20199;-91
2024/04/05 01:48:20;;;;;;;1.50;1.40;;;;;;;11.23;52.27;96655.31;5109606;28;20198;-89
2024/04/05 01:50:46;;;;;;;2.00;1.20;;;;;;;11.02;52.59;96641.44;5105492;28;20211;-90
2024/04/05 01:53:13;;;;;;;1.60;1.50;;;;;;;11.04;52.09;96619.88;5107230;28;20200;-87
2024/04/05 01:55:39;;;;;;;1.50;1.40;;;;;;;11.32;51.53;96650.09;5104776;28;20199;-88
2024/04/05 01:58:10;;;;;;;1.53;1.37;;;;;;;11.09;51.94;96627.78;5113949;28;20663;-87
2024/04/05 02:00:37;;;;;;;2.03;1.20;;;;;;;11.05;52.43;96648.09;5107474;28;20296;-87
2024/04/05 02:03:04;;;;;;;1.60;1.23;;;;;;;10.67;52.60;96581.47;5109951;28;20285;-87
2024/04/05 02:05:30;;;;;;;4.20;3.10;;;;;;;10.82;52.99;96623.09;5101524;28;20204;-87
2024/04/05 02:07:56;;;;;;;1.30;1.20;;;;;;;10.73;53.34;96650.34;5093742;28;20199;-87
2024/04/05 02:10:22;;;;;;;2.23;1.23;;;;;;;10.48;54.23;96619.50;5110972;28;20199;-90
2024/04/05 02:12:49;;;;;;;1.13;1.10;;;;;;;10.29;55.23;96655.88;5104622;28;20195;-89
2024/04/05 02:15:16;;;;;;;2.00;1.30;;;;;;;10.40;55.60;96659.25;5107157;28;20204;-89
2024/04/05 02:17:43;;;;;;;1.57;1.40;;;;;;;10.63;54.28;96633.69;5092890;28;20265;-89
2024/04/05 02:20:09;;;;;;;3.00;1.50;;;;;;;11.11;52.92;96647.75;5092810;28;20204;-89
2024/04/05 02:22:36;;;;;;;0.80;0.80;;;;;;;11.46;51.78;96651.75;5109590;28;20203;-89
2024/04/05 02:25:02;;;;;;;3.70;1.30;;;;;;;11.30;51.46;96599.75;5113633;28;20219;-89
2024/04/05 02:27:28;;;;;;;1.60;1.50;;;;;;;11.70;51.11;96653.53;5104342;28;20208;-90
2024/04/05 02:29:54;;;;;;;1.50;1.30;;;;;;;11.81;51.13;96662.13;5104812;28;20607;-89
2024/04/05 02:32:23;;;;;;;1.37;1.27;;;;;;;11.73;50.59;96636.94;5109144;28;20200;-89
2024/04/05 02:34:48;;;;;;;1.27;1.10;;;;;;;11.75;50.83;96648.91;5092433;28;20241;-89
2024/04/05 02:37:15;;;;;;;2.40;1.30;;;;;;;11.81;51.11;96662.13;5092993;28;20204;-90
2024/04/05 02:39:41;;;;;;;1.30;1.20;;;;;;;11.83;50.57;96663.47;5092511;28;20258;-89
2024/04/05 02:42:08;;;;;;;3.50;1.40;;;;;;;11.83;50.97;96658.13;5107777;28;20211;-89
2024/04/05 02:44:34;;;;;;;2.10;1.10;;;;;;;11.75;51.00;96667.56;5094356;28;20223;-88
2024/04/05 02:47:00;;;;;;;1.77;0.97;;;;;;;11.63;51.22;96634.44;5092301;28;20202;-88
2024/04/05 02:49:28;;;;;;;4.57;1.40;;;;;;;11.84;51.33;96674.94;5092993;28;20615;-89
2024/04/05 02:51:54;;;;;;;1.07;1.07;;;;;;;11.76;51.24;96663.00;5092105;28;20200;-89
2024/04/05 02:54:20;;;;;;;2.53;1.17;;;;;;;11.70;51.50;96669.53;5097039;28;20199;-83
2024/04/05 02:56:47;;;;;;;2.10;1.33;;;;;;;11.79;51.28;96667.78;5095229;28;20558;-84
2024/04/05 02:59:13;;;;;;;1.30;1.20;;;;;;;11.79;51.39;96678.44;5091089;28;20199;-86
2024/04/05 03:01:39;;;;;;;1.70;1.00;;;;;;;11.71;51.67;96668.44;5092528;28;20222;-85
2024/04/05 03:04:05;;;;;;;1.63;1.10;;;;;;;11.63;51.98;96666.44;5103408;28;20730;-85
2024/04/05 03:06:33;;;;;;;1.63;1.00;;;;;;;11.71;51.81;96663.09;5108840;28;20195;-84
2024/04/05 03:08:59;;;;;;;4.37;1.00;;;;;;;11.71;51.83;96663.91;5097888;28;20192;-85
2024/04/05 03:11:26;;;;;;;4.40;1.67;;;;;;;11.34;51.79;96622.06;5108433;28;20195;-84
2024/04/05 03:13:52;;;;;;;2.00;1.27;;;;;;;11.23;51.96;96610.00;5094790;28;20214;-85
2024/04/05 03:16:19;;;;;;;1.13;1.00;;;;;;;11.48;52.16;96651.47;5096656;28;20188;-84
2024/04/05 03:18:44;;;;;;;1.23;1.10;;;;;;;11.34;52.34;96645.28;5114531;28;20207;-86
2024/04/05 03:21:11;;;;;;;1.13;1.10;;;;;;;11.67;52.13;96680.78;5108278;28;20658;-85
2024/04/05 03:23:38;;;;;;;1.20;1.10;;;;;;;11.65;52.36;96685.59;5115612;28;20717;-85
2024/04/05 03:26:06;;;;;;;1.20;1.10;;;;;;;11.69;51.84;96686.59;5114775;28;20204;-85
2024/04/05 03:28:32;;;;;;;1.37;1.27;;;;;;;11.65;51.84;96675.72;5115753;28;20213;-84
2024/04/05 03:31:03;;;;;;;2.73;1.10;;;;;;;11.69;51.73;96697.25;5115127;28;20196;-85
2024/04/05 03:33:32;;;;;;;2.40;1.50;;;;;;;11.71;51.86;96695.09;5102816;28;20235;-84
2024/04/05 03:36:04;;;;;;;1.97;0.97;;;;;;;11.39;51.87;96666.53;5094985;28;20271;-84
2024/04/05 03:38:31;;;;;;;2.33;1.13;;;;;;;11.45;52.04;96658.16;5105322;28;20617;-84
2024/04/05 03:41:02;;;;;;;1.23;1.00;;;;;;;11.68;51.68;96704.47;5110756;28;20200;-82
2024/04/05 03:43:28;;;;;;;1.00;1.00;;;;;;;11.73;51.94;96711.59;5094636;28;20199;-81
2024/04/05 03:45:54;;;;;;;1.80;1.00;;;;;;;11.72;51.97;96702.81;5095601;28;20200;-85
2024/04/05 03:48:20;;;;;;;3.70;1.47;;;;;;;11.51;51.81;96659.66;5108362;28;20193;-85
2024/04/05 03:50:49;;;;;;;0.87;0.87;;;;;;;11.67;52.25;96708.22;5104684;28;20209;-86
2024/04/05 03:53:15;;;;;;;1.90;1.30;;;;;;;11.65;52.31;96712.25;5100335;28;20676;-86
2024/04/05 03:55:42;;;;;;;5.87;1.87;;;;;;;11.69;52.30;96713.25;5108328;28;20194;-85
2024/04/05 03:58:09;;;;;;;1.83;1.37;;;;;;;11.67;51.91;96718.09;5097020;28;20207;-85
2024/04/05 04:00:36;;;;;;;1.50;1.40;;;;;;;11.52;52.49;96701.22;5101439;28;20218;-85
2024/04/05 04:03:02;;;;;;;2.50;2.10;;;;;;;11.33;52.34;96686.31;5096517;28;20207;-86
2024/04/05 04:05:29;;;;;;;1.43;1.33;;;;;;;11.36;52.41;96672.44;5106012;28;20215;-86
2024/04/05 04:07:54;;;;;;;1.50;1.40;;;;;;;11.66;52.22;96735.19;5094024;28;20192;-86
2024/04/05 04:10:24;;;;;;;1.83;1.30;;;;;;;11.47;52.26;96700.53;5104091;28;20635;-85
2024/04/05 04:12:50;;;;;;;3.80;1.90;;;;;;;11.33;52.50;96696.97;5101784;28;20259;-85
2024/04/05 04:15:18;;;;;;;5.07;2.67;;;;;;;11.69;52.41;96734.59;5104663;28;20283;-85
2024/04/05 04:17:45;;;;;;;3.20;1.50;;;;;;;11.32;52.94;96692.75;5098093;28;20196;-85
2024/04/05 04:20:12;;;;;;;1.50;1.10;;;;;;;11.64;52.55;96734.66;5108705;28;20314;-85
2024/04/05 04:22:38;;;;;;;1.07;1.07;;;;;;;11.69;52.17;96729.25;5111163;28;20199;-85
2024/04/05 04:25:06;;;;;;;3.27;1.10;;;;;;;11.81;52.25;96742.13;5114871;28;20277;-85
2024/04/05 04:27:32;;;;;;;1.60;1.10;;;;;;;11.79;51.73;96739.78;5114335;28;20200;-85
2024/04/05 04:29:59;;;;;;;1.30;1.20;;;;;;;11.39;52.43;96666.53;5113831;28;20553;-85
2024/04/05 04:32:26;;;;;;;1.10;1.07;;;;;;;11.96;51.90;96750.75;5103124;28;20737;-84
2024/04/05 04:34:53;;;;;;;8.03;1.40;;;;;;;11.47;51.97;96671.22;5107431;28;20662;-85
2024/04/05 04:37:20;;;;;;;1.20;1.10;;;;;;;11.61;52.30;96719.25;5106043;28;20192;-85
2024/04/05 04:39:47;;;;;;;4.77;1.20;;;;;;;11.85;51.77;96730.66;5114074;28;20635;-85
2024/04/05 04:42:13;;;;;;;1.60;1.13;;;;;;;11.69;51.61;96706.06;5114262;28;20203;-85
2024/04/05 04:44:40;;;;;;;1.10;1.10;;;;;;;11.89;52.04;96745.00;5097838;28;20234;-84
2024/04/05 04:47:06;;;;;;;1.20;1.10;;;;;;;11.90;52.26;96757.25;5093444;28;20203;-85
2024/04/05 04:49:34;;;;;;;2.60;1.17;;;;;;;11.99;51.84;96766.16;5094601;28;20192;-84
2024/04/05 04:52:00;;;;;;;0.97;0.97;;;;;;;11.99;51.80;96758.16;5095107;28;20557;-84
2024/04/05 04:54:28;;;;;;;1.27;1.17;;;;;;;11.98;51.84;96756.59;5108154;28;20192;-86
2024/04/05 04:56:54;;;;;;;1.47;1.10;;;;;;;11.84;51.63;96742.38;5097731;28;20203;-84
2024/04/05 04:59:28;;;;;;;2.97;0.97;;;;;;;11.82;51.33;96744.53;5102223;28;20191;-84
2024/04/05 05:01:53;;;;;;;1.07;1.00;;;;;;;12.01;51.74;96760.56;5099623;28;20757;-84
2024/04/05 05:04:20;;;;;;;1.10;0.97;;;;;;;11.93;51.91;96771.88;5112133;28;20215;-85
2024/04/05 05:06:48;;;;;;;1.77;1.17;;;;;;;11.93;51.71;96778.00;5093429;28;20199;-84
2024/04/05 05:09:15;;;;;;;1.23;1.10;;;;;;;11.86;51.84;96761.56;5094635;28;20210;-85
2024/04/05 05:11:41;;;;;;;2.00;1.47;;;;;;;11.75;52.39;96760.09;5104492;28;20197;-83
2024/04/05 05:14:09;;;;;;;3.27;1.63;;;;;;;11.89;52.52;96785.00;5108325;28;20202;-85
2024/04/05 05:16:36;;;;;;;1.93;0.87;;;;;;;11.85;52.29;96784.00;5113289;28;20202;-84
2024/04/05 05:19:03;;;;;;;1.20;1.20;;;;;;;11.96;52.18;96789.94;5111097;28;20595;-84
2024/04/05 05:21:29;;;;;;;2.27;1.23;;;;;;;12.04;51.80;96789.31;5092372;28;20200;-84
2024/04/05 05:23:58;;;;;;;1.50;1.13;;;;;;;12.12;51.73;96795.84;5092987;28;20192;-88
2024/04/05 05:26:23;;;;;;;4.80;1.30;;;;;;;12.10;52.32;96769.47;5103241;28;20196;-84
2024/04/05 05:28:50;;;;;;;0.80;0.80;;;;;;;11.99;51.85;96725.34;5099334;28;20335;-83
2024/04/05 05:31:16;;;;;;;2.20;1.00;;;;;;;12.43;51.14;96791.63;5102162;28;20204;-84
2024/04/05 05:33:43;;;;;;;3.27;1.00;;;;;;;12.36;51.43;96783.22;5096333;28;20196;-83
2024/04/05 05:36:09;;;;;;;0.90;0.90;;;;;;;12.57;51.07;96818.34;5112990;28;20216;-83
2024/04/05 05:38:35;;;;;;;1.63;0.83;;;;;;;12.64;51.08;96799.28;5095280;28;20274;-84
2024/04/05 05:41:03;;;;;;;1.30;1.13;;;;;;;12.33;51.19;96765.09;5102122;28;20210;-84
2024/04/05 05:43:30;;;;;;;0.93;0.90;;;;;;;12.65;51.25;96803.53;5108419;28;20283;-84
2024/04/05 05:45:55;;;;;;;1.30;1.20;;;;;;;12.77;50.78;96792.38;5102882;28;20223;-88
2024/04/05 05:48:22;;;;;;;1.93;1.17;;;;;;;12.82;50.18;96777.06;5108697;28;20207;-83
2024/04/05 05:50:48;;;;;;;1.30;1.20;;;;;;;13.16;49.72;96799.94;5092430;28;20572;-83
2024/04/05 05:53:15;;;;;;;0.87;0.87;;;;;;;13.29;49.33;96801.84;5109369;28;20207;-83
2024/04/05 05:55:41;;;;;;;2.33;1.17;;;;;;;13.41;49.22;96799.47;5101263;28;20208;-83
2024/04/05 05:58:09;;;;;;;1.00;0.93;;;;;;;13.52;49.16;96792.03;5096261;28;20196;-83
2024/04/05 06:00:35;;;;;;;1.10;1.00;;;;;;;13.69;49.13;96789.50;5112176;28;20223;-83
2024/04/05 06:03:02;;;;;;;0.73;0.73;;;;;;;13.87;48.04;96795.03;5107608;28;20711;-83
2024/04/05 06:05:28;;;;;;;4.00;1.00;;;;;;;13.95;48.03;96792.44;5091944;28;20216;-83
2024/04/05 06:07:55;;;;;;;1.77;0.83;;;;;;;14.18;47.23;96785.22;5095796;28;20214;-84
2024/04/05 06:10:21;;;;;;;1.30;1.30;;;;;;;14.34;46.85;96782.94;5101025;28;20196;-83
2024/04/05 06:12:48;;;;;;;3.17;0.97;;;;;;;14.47;46.75;96788.53;5109619;28;20587;-83
2024/04/05 06:15:16;;;;;;;1.13;1.07;;;;;;;14.45;46.04;96783.50;5100533;28;20287;-83
2024/04/05 06:17:46;;;;;;;4.43;1.53;;;;;;;14.42;46.48;96792.91;5105086;28;20196;-83
2024/04/05 06:20:15;;;;;;;0.90;0.80;;;;;;;14.62;45.06;96796.22;5103593;28;20264;-83
2024/04/05 06:22:42;;;;;;;3.73;0.77;;;;;;;14.73;45.64;96794.88;5105981;28;20269;-83
2024/04/05 06:25:08;;;;;;;0.80;0.80;;;;;;;14.85;45.78;96800.44;5104398;28;20272;-82
2024/04/05 06:27:36;;;;;;;0.73;0.67;;;;;;;14.89;45.48;96805.97;5111875;28;20712;-83
2024/04/05 06:30:03;;;;;;;0.70;0.70;;;;;;;14.97;45.45;96794.50;5098453;28;20202;-83
2024/04/05 06:32:31;;;;;;;0.70;0.70;;;;;;;14.91;45.19;96766.28;5111843;28;20200;-83
2024/04/05 06:34:58;;;;;;;1.70;1.10;;;;;;;15.38;44.89;96814.84;5112009;28;20259;-84
2024/04/05 06:37:25;;;;;;;1.57;1.00;;;;;;;15.45;44.00;96798.28;5091764;28;20349;-83
2024/04/05 06:39:54;;;;;;;2.80;0.97;;;;;;;15.56;43.89;96807.63;5105077;28;20211;-84
2024/04/05 06:42:20;;;;;;;0.93;0.93;;;;;;;15.67;43.40;96803.59;5111441;28;20198;-83
2024/04/05 06:44:52;;;;;;;1.47;1.00;;;;;;;16.00;43.72;96800.47;5098022;28;20307;-83
2024/04/05 06:47:18;;;;;;;6.60;2.50;;;;;;;16.03;43.19;96814.06;5103539;28;20234;-83
2024/04/05 06:49:46;;;;;;;0.70;0.70;;;;;;;16.15;42.28;96805.38;5104595;28;20241;-83
2024/04/05 06:52:13;;;;;;;0.70;0.70;;;;;;;15.99;42.14;96769.34;5091153;28;20198;-83
2024/04/05 06:54:43;;;;;;;0.77;0.77;;;;;;;16.23;41.76;96811.84;5093004;28;20198;-83
2024/04/05 06:57:09;;;;;;;2.87;0.93;;;;;;;16.34;42.19;96784.34;5111799;28;20247;-83
2024/04/05 06:59:36;;;;;;;4.63;1.23;;;;;;;16.28;41.10;96803.63;5095217;28;20249;-83
2024/04/05 07:02:04;;;;;;;3.67;0.90;;;;;;;16.44;40.96;96823.50;5090950;28;20575;-83
2024/04/05 07:04:31;;;;;;;2.60;0.80;;;;;;;16.62;40.20;96829.66;5090795;28;20700;-83
2024/04/05 07:06:58;;;;;;;0.60;0.60;;;;;;;16.75;40.14;96820.66;5091335;28;20261;-83
2024/04/05 07:09:25;;;;;;;0.67;0.67;;;;;;;17.00;39.35;96828.97;5104416;28;20701;-83
2024/04/05 07:11:52;;;;;;;1.07;0.87;;;;;;;16.79;39.77;96826.97;5101009;28;20207;-83
2024/04/05 07:14:19;;;;;;;2.80;1.07;;;;;;;17.04;39.03;96825.31;5094242;28;20264;-83
2024/04/05 07:16:49;;;;;;;0.80;0.80;;;;;;;16.88;38.67;96832.31;5090720;28;20196;-83
2024/04/05 07:19:17;;;;;;;0.70;0.70;;;;;;;17.11;39.20;96830.19;5090678;28;20196;-83
2024/04/05 07:21:45;;;;;;;1.90;1.00;;;;;;;17.26;38.39;96832.34;5090935;28;20200;-83
2024/04/05 07:24:13;;;;;;;0.77;0.77;;;;;;;17.02;38.28;96824.84;5095031;28;20649;-83
2024/04/05 07:26:39;;;;;;;0.80;0.80;;;;;;;16.91;38.44;96798.63;5099374;28;20200;-83
2024/04/05 07:29:05;;;;;;;1.93;0.73;;;;;;;17.59;37.67;96826.34;5104353;28;20585;-83
2024/04/05 07:31:36;;;;;;;0.50;0.50;;;;;;;17.44;38.11;96837.66;5102033;28;20698;-83
2024/04/05 07:34:03;;;;;;;2.37;0.90;;;;;;;17.53;37.11;96830.31;5105480;28;20207;-83
2024/04/05 07:36:29;;;;;;;4.00;0.83;;;;;;;17.82;35.84;96824.97;5103294;28;20284;-85
2024/04/05 07:38:56;;;;;;;0.40;0.40;;;;;;;18.34;35.81;96846.13;5110754;28;20677;-83
2024/04/05 07:41:23;;;;;;;0.87;0.80;;;;;;;17.96;35.81;96843.56;5097789;28;20200;-84
2024/04/05 07:43:50;;;;;;;1.97;0.57;;;;;;;17.78;36.36;96842.13;5097234;28;20285;-82
2024/04/05 07:46:16;;;;;;;0.57;0.57;;;;;;;17.75;35.93;96864.28;5110939;28;20233;-83
2024/04/05 07:48:43;;;;;;;1.83;0.80;;;;;;;17.94;36.25;96858.47;5104571;28;20283;-83
2024/04/05 07:51:10;;;;;;;0.97;0.77;;;;;;;18.55;35.30;96864.22;5103841;28;20689;-83
2024/04/05 07:53:37;;;;;;;0.80;0.80;;;;;;;18.55;34.86;96856.13;5090123;28;20208;-83
2024/04/05 07:56:03;;;;;;;2.20;1.03;;;;;;;18.74;35.09;96853.75;5090622;28;20196;-84
2024/04/05 07:58:31;;;;;;;2.37;0.70;;;;;;;18.72;33.99;96842.50;5111400;28;20199;-83
2024/04/05 08:00:57;;;;;;;2.60;0.87;;;;;;;18.72;33.58;96842.50;5096290;28;20299;-83
2024/04/05 08:03:24;;;;;;;3.90;0.73;;;;;;;19.24;33.75;96846.53;5091173;28;20197;-83
2024/04/05 08:05:49;;;;;;;1.37;0.80;;;;;;;19.08;32.62;96815.94;5093998;28;20228;-83
2024/04/05 08:08:16;;;;;;;0.80;0.77;;;;;;;19.07;32.75;96847.53;5101703;28;20195;-82
2024/04/05 08:10:42;;;;;;;0.67;0.67;;;;;;;19.53;31.11;96849.03;5100262;28;20204;-83
2024/04/05 08:13:09;;;;;;;0.87;0.50;;;;;;;19.70;31.23;96853.44;5114796;28;20203;-83
2024/04/05 08:15:37;;;;;;;0.80;0.53;;;;;;;19.73;31.25;96852.00;5099787;28;20200;-83
2024/04/05 08:18:03;;;;;;;0.93;0.50;;;;;;;19.94;29.55;96851.84;5094052;28;20246;-83
2024/04/05 08:20:30;;;;;;;0.87;0.80;;;;;;;19.59;31.28;96862.31;5108311;28;20199;-87
2024/04/05 08:22:56;;;;;;;4.53;1.07;;;;;;;19.34;31.92;96858.81;5114688;28;20206;-83
2024/04/05 08:25:22;;;;;;;1.57;0.70;;;;;;;19.27;30.91;96865.56;5099839;28;20311;-83
2024/04/05 08:27:49;;;;;;;0.50;0.50;;;;;;;19.24;31.53;96863.53;5101656;28;20630;-83
2024/04/05 08:30:18;;;;;;;1.93;0.90;;;;;;;18.89;31.65;96846.91;5113003;28;20211;-83
2024/04/05 08:32:46;;;;;;;1.60;1.20;;;;;;;19.03;32.30;96863.59;5093772;28;20192;-83
2024/04/05 08:35:13;;;;;;;0.53;0.53;;;;;;;18.39;32.15;96793.16;5093905;28;20267;-83
2024/04/05 08:37:40;;;;;;;0.40;0.40;;;;;;;19.54;31.19;96860.63;5102621;28;20206;-84
2024/04/05 08:40:08;;;;;;;1.97;0.93;;;;;;;19.41;30.68;96791.56;5100328;28;20566;-84
2024/04/05 08:42:36;;;;;;;4.50;0.80;;;;;;;20.18;30.10;96853.75;5114233;28;20207;-83
2024/04/05 08:45:03;;;;;;;1.63;0.70;;;;;;;20.39;29.12;96850.84;5111160;28;20316;-84
2024/04/05 08:47:32;;;;;;;1.97;0.50;;;;;;;19.93;29.74;96834.84;5103997;28;20203;-83
2024/04/05 08:50:02;;;;;;;0.87;0.60;;;;;;;20.38;29.87;96841.19;5110321;28;20232;-83
2024/04/05 08:52:29;;;;;;;0.87;0.60;;;;;;;21.16;29.92;96839.81;5104073;28;20298;-83
2024/04/05 08:54:57;;;;;;;0.30;0.30;;;;;;;20.89;28.52;96846.84;5100195;28;20204;-83
2024/04/05 08:57:30;;;;;;;0.63;0.63;;;;;;;20.07;29.91;96853.41;5113683;28;20195;-83
2024/04/05 08:59:55;;;;;;;1.27;0.87;;;;;;;19.30;32.01;96859.50;5108397;28;20601;-84
2024/04/05 09:02:24;;;;;;;4.40;0.67;;;;;;;19.43;32.68;96843.28;5093369;28;20196;-84
2024/04/05 09:04:51;;;;;;;0.53;0.53;;;;;;;19.58;31.08;96847.25;5092800;28;20624;-85
2024/04/05 09:07:20;;;;;;;0.60;0.60;;;;;;;19.88;30.84;96845.91;5093621;28;20279;-83
2024/04/05 09:09:47;;;;;;;0.80;0.80;;;;;;;20.29;30.94;96862.97;5092971;28;20208;-83
2024/04/05 09:12:17;;;;;;;2.43;1.00;;;;;;;19.89;32.02;96869.09;5106294;28;20287;-83
2024/04/05 09:14:43;;;;;;;1.20;0.53;;;;;;;19.90;30.03;96843.66;5092871;28;20694;-83
2024/04/05 09:17:13;;;;;;;0.60;0.57;;;;;;;19.48;30.12;96867.41;5106150;28;20231;-83
2024/04/05 09:19:40;;;;;;;0.90;0.70;;;;;;;19.65;30.21;96864.50;5092455;28;20287;-83
2024/04/05 09:22:07;;;;;;;0.93;0.70;;;;;;;19.75;30.23;96874.06;5093584;28;20261;-83
2024/04/05 09:24:35;;;;;;;0.40;0.40;;;;;;;19.13;30.60;96864.28;5112726;28;20207;-84
2024/04/05 09:27:03;;;;;;;0.50;0.50;;;;;;;19.44;31.15;96866.50;5098579;28;20279;-86
2024/04/05 09:29:30;;;;;;;0.40;0.40;;;;;;;19.23;30.12;96866.56;5092718;28;20257;-83
2024/04/05 09:31:56;;;;;;;1.00;0.73;;;;;;;19.03;31.24;96873.59;5094238;28;20255;-85
2024/04/05 09:34:25;;;;;;;0.70;0.70;;;;;;;19.05;31.48;96855.19;5104958;28;20208;-84
2024/04/05 09:36:53;;;;;;;2.63;0.83;;;;;;;18.66;30.88;96810.66;5094224;28;20286;-84
2024/04/05 09:39:21;;;;;;;0.77;0.43;;;;;;;19.18;31.29;96883.75;5103362;28;20667;-84
2024/04/05 09:41:50;;;;;;;1.50;0.60;;;;;;;19.10;31.93;96881.16;5095184;28;20283;-84
2024/04/05 09:44:17;;;;;;;0.50;0.50;;;;;;;18.98;31.47;96874.63;5113497;28;20199;-85
2024/04/05 09:46:45;;;;;;;2.90;0.60;;;;;;;18.71;32.31;96862.50;5096068;28;20304;-84
2024/04/05 09:49:12;;;;;;;0.83;0.60;;;;;;;19.11;32.55;96871.94;5092320;28;20663;-84
2024/04/05 09:51:44;;;;;;;1.43;0.60;;;;;;;18.91;31.30;96879.75;5095992;28;20561;-85
2024/04/05 09:54:12;;;;;;;0.53;0.50;;;;;;;18.92;31.91;96875.94;5112574;28;20201;-84
2024/04/05 09:56:39;;;;;;;1.27;0.70;;;;;;;18.95;32.63;96877.19;5094158;28;20658;-84
2024/04/05 09:59:11;;;;;;;1.57;0.97;;;;;;;18.87;32.64;96870.75;5092163;28;20200;-84
2024/04/05 10:01:39;;;;;;;0.70;0.70;;;;;;;18.92;32.63;96872.44;5091827;28;20318;-84
2024/04/05 10:04:08;;;;;;;0.50;0.50;;;;;;;19.12;32.02;96870.81;5105088;28;20274;-84
2024/04/05 10:06:38;;;;;;;0.70;0.70;;;;;;;18.83;32.27;96874.44;5091772;28;20664;-84
2024/04/05 10:09:15;;;;;;;0.70;0.70;;;;;;;19.16;32.74;96879.81;5091720;28;20204;-86
2024/04/05 10:11:41;;;;;;;2.00;0.80;;;;;;;19.62;31.62;96888.69;5103969;28;20200;-84
2024/04/05 10:14:10;;;;;;;0.93;0.83;;;;;;;19.11;31.72;96842.25;5091449;28;20583;-85
2024/04/05 10:16:36;;;;;;;2.03;1.00;;;;;;;19.57;31.46;96878.06;5092106;28;20281;-85
2024/04/05 10:19:10;;;;;;;1.97;0.80;;;;;;;19.99;30.07;96851.63;5094148;28;20670;-85
2024/04/05 10:21:36;;;;;;;0.57;0.57;;;;;;;19.74;30.54;96846.25;5102251;28;20636;-84
2024/04/05 10:24:06;;;;;;;1.43;0.70;;;;;;;19.69;30.26;96862.69;5105425;28;20573;-84
2024/04/05 10:26:35;;;;;;;1.30;0.63;;;;;;;19.40;31.24;96870.97;5101990;28;20215;-86
2024/04/05 10:29:04;;;;;;;0.73;0.60;;;;;;;19.95;30.12;96834.53;5107149;28;20188;-88
2024/04/05 10:31:36;;;;;;;3.30;0.70;;;;;;;20.60;29.49;96823.66;5103338;28;20676;-84
2024/04/05 10:34:03;;;;;;;3.30;0.70;;;;;;;21.04;29.47;96854.22;5105714;28;20658;-85
2024/04/05 10:36:31;;;;;;;1.30;1.00;;;;;;;21.20;28.44;96857.72;5103813;28;20203;-84
2024/04/05 10:38:58;;;;;;;0.77;0.73;;;;;;;21.65;27.11;96861.94;5092473;28;20196;-84
2024/04/05 10:41:23;;;;;;;1.93;0.70;;;;;;;20.90;29.22;96832.97;5104721;28;20218;-83
2024/04/05 10:44:01;;;;;;;0.60;0.60;;;;;;;21.29;27.63;96862.94;5098009;28;20187;-84
2024/04/05 10:46:27;;;;;;;1.10;0.70;;;;;;;21.74;28.21;96870.66;5110766;28;20246;-84
2024/04/05 10:48:58;;;;;;;0.67;0.60;;;;;;;21.56;28.60;96868.66;5099319;28;20265;-84
2024/04/05 10:51:24;;;;;;;1.13;0.80;;;;;;;21.23;27.89;96859.72;5096099;28;20200;-83
2024/04/05 10:53:51;;;;;;;2.20;0.70;;;;;;;21.54;28.74;96862.81;5091421;28;20258;-83
2024/04/05 10:56:17;;;;;;;2.80;0.77;;;;;;;21.06;29.13;96851.91;5106633;28;20204;-84
2024/04/05 10:58:44;;;;;;;0.57;0.57;;;;;;;21.06;29.04;96851.91;5102854;28;20211;-84
2024/04/05 11:01:11;;;;;;;0.53;0.50;;;;;;;21.09;28.66;96853.94;5106725;28;20716;-84
2024/04/05 11:03:38;;;;;;;0.70;0.70;;;;;;;21.70;27.87;96847.34;5111701;28;20637;-84
2024/04/05 11:06:08;;;;;;;3.80;0.63;;;;;;;21.54;26.81;96795.91;5097220;28;20230;-84
2024/04/05 11:08:34;;;;;;;1.67;1.30;;;;;;;22.02;25.85;96839.91;5101911;28;20204;-84
2024/04/05 11:11:08;;;;;;;0.87;0.70;;;;;;;22.07;26.25;96834.25;5107270;28;20191;-85
2024/04/05 11:13:35;;;;;;;1.10;1.00;;;;;;;21.65;26.74;96829.44;5111409;28;20568;-84
2024/04/05 11:16:03;;;;;;;3.73;1.30;;;;;;;21.71;26.61;96810.97;5111138;28;20187;-83
2024/04/05 11:18:36;;;;;;;1.40;0.70;;;;;;;21.21;26.76;96826.00;5100079;28;20216;-84
2024/04/05 11:21:03;;;;;;;1.67;1.13;;;;;;;21.45;27.61;96830.47;5091268;28;20192;-84
2024/04/05 11:23:32;;;;;;;0.77;0.77;;;;;;;21.38;28.07;96852.00;5103754;28;20199;-84
2024/04/05 11:25:59;;;;;;;1.57;0.93;;;;;;;21.90;27.29;96840.81;5104329;28;20215;-84
2024/04/05 11:28:26;;;;;;;2.17;1.00;;;;;;;22.21;26.57;96845.41;5090945;28;20671;-84
2024/04/05 11:30:53;;;;;;;0.70;0.70;;;;;;;21.77;25.05;96838.59;5096930;28;20194;-83
2024/04/05 11:33:20;;;;;;;1.07;0.73;;;;;;;22.09;25.17;96842.78;5098009;28;20283;-84